Portada
METAR-TAF:

METAR-TAF

Aeropuertos :

Baraboo Wisconsin Dells Airport

Baraboo / Wisconsin Dells, Wisconsin, Estados Unidos

latitud: 43-31-19N, longitud: 089-46-15W, altitud: 298 m

Observación

El informe se hizo hace 19 minutos, a las 07:15 UTC
Viento 8 kt del este
Temperatura 7°C
Humedad 87%
Presión 1026 hPa
Visibilidad: 16.1 km
Cielo despejado

METAR: KDLL 310715Z AUTO 08008KT 10SM CLR 07/05 A3031 RMK AO2 T00670049

Hora: 02:34 (07:34 UTC)


TAF: falta

Observaciones y pronósticos meteorológicos de más de 4000 aeropuertos (mensajes METAR y TAF).

Los puntos amarillos y rojos representan las estaciones disponibles.

Ponga el ratón en el punto deseado para ver el nombre de la estación.

Haga clic para ver las observaciones y los pronósticos meteorológicos.

Para cambiar el mapa : haga clic en los botones verdes con una cruz de color negro para hacer un zoom, en el botón verde con un guión para alejar o en las flechas verdes para mapas adyacentes.


METAR-TAF: